Augusta, GA

1:05 PM EDT on May 23, 2015 (GMT -0400)
Lake Olmstead | | Change Station
CLOSE
Current Station
Personal Weather Station
Location: Augusta, GA
Elevation: 213 ft
Nearby Weather Stations

Elev 213 ft 33.50 °N, 82.00 °W | Updated 13 minutes ago

Clear
Clear
80.2 °F
Feels Like 80 °F
N
2.2
Wind Variable Wind from South

Today
High -- | Low -- °F
--% Chance of Precip.
Yesterday
High -- | Low -- °F
Precip. -- in
6:22 AM 8:26 PM
Waxing Crescent, 31% visible
Pressure 30.37 in
Visibility 10.0 miles
Clouds Clear
Heat Index 80 °F
Dew Point 49 °F
Humidity 34%
Rainfall 0.00 in
Snow Depth Not available.
UV 12 out of 12
Pollen 6.10 out of 12
Air Quality Not available.
Flu Activity Sporadic
METAR KDNL 231653Z AUTO 10009G15KT 070V140 10SM CLR 27/07 A3038 RMK AO2 SLP283 T02720072

More Conditions Fewer Conditions

Pressure 30.37 in
Visibility 10.0 miles
Clouds Clear
Heat Index 80 °F
Dew Point 49 °F
Humidity 34%
Rainfall 0.00 in
Snow Depth Not available.
UV 12 out of 12
Pollen 6.10 out of 12
Air Quality Not available.
Flu Activity Sporadic
METAR KDNL 231653Z AUTO 10009G15KT 070V140 10SM CLR 27/07 A3038 RMK AO2 SLP283 T02720072

More Conditions Fewer Conditions

10-Day Weather Forecast

Almanac

Astronomy

May. 23, 2015 Rise Set
Actual Time
Civil Twilight
Nautical Twilight
Astronomical Twilight
Moon
Length of Visible Light
Length of Day
Tomorrow will be .
, % of the Moon is Illuminated

Today's Extremes

State Highs State Lows

Community

WunderPhotos

Upload Photos

1,823,519 photos uploaded!

WunderBlogs® & News

Nearby

Air Quality

  Air Quality AQ Index Pollutant
Not available.

Snow Depth

Station Depth Elevation

Earthquake Activity

City Distance Mag. Time & Date
Minimum magnitude displayed is 2.5.

Coastal Water Temperatures

Place Temperature

Stations

Nearby Weather Stations

Station Location Temp. Windchill Dew Point Humidity Wind Precip. Elev Updated Type